Lafkin, Texas
Current Conditions -  °F | °C
As of 8:55 PM on Sunday 23 Nov 2014 (Local Time) from KT65 Reporting Station
Clear Clear  
Wind Chill: 65°   Ceiling: Unl
Heat Index: 65°   Visibility: 7mi
Dew Point: 56°   Wind: 3mph
Humidity: 74%   Direction: 160°SSE
Pressure: 29.7"   Gusts: NA
Location:  26.1795°N, 97.829°W
Report Text: KT65 240255Z AUTO 16003KT 7SM CLR 18/14 A2970 RMK AO2 P0001 60003 T01830135
Loading
Personal Weather Stations






























Interactive Weather Map New forecast layout! Learn more

10-Day Weather Forecast

Advertisements
Track Severe Weather on mobile